Time;durP1;ratioP1;P1;durP2;ratioP2;P2;SDS_P1;SDS_P2;PMS_P1;PMS_P2;Temp;Humidity;BMP_temperature;BMP_pressure;BME280_temperature;BME280_humidity;BME280_pressure;Samples;Min_cycle;Max_cycle;Signal;HPM_P1;HPM_P2
2022/05/11 00:00:56;;;;;;;4.07;2.05;;;17.70;96.10;;;;;;5012922;28;20685;-73
2022/05/11 00:03:22;;;;;;;7.28;2.10;;;17.70;96.20;;;;;;5050753;28;20481;-72
2022/05/11 00:05:48;;;;;;;4.35;2.13;;;17.80;96.20;;;;;;5015089;28;20133;-71
2022/05/11 00:08:13;;;;;;;5.00;2.00;;;17.70;96.10;;;;;;5020914;28;20043;-72
2022/05/11 00:10:40;;;;;;;3.60;1.88;;;17.70;96.30;;;;;;5046721;28;20105;-72
2022/05/11 00:13:06;;;;;;;5.78;1.92;;;17.60;96.40;;;;;;5022195;28;20049;-72
2022/05/11 00:15:34;;;;;;;4.00;1.95;;;17.60;96.50;;;;;;5019125;28;20163;-73
2022/05/11 00:18:01;;;;;;;6.03;2.38;;;17.70;96.70;;;;;;5054899;28;20042;-73
2022/05/11 00:20:28;;;;;;;6.75;2.40;;;17.70;96.90;;;;;;5020205;28;20049;-73
2022/05/11 00:22:57;;;;;;;4.50;2.30;;;17.70;96.70;;;;;;5021521;28;20045;-72
2022/05/11 00:25:25;;;;;;;5.95;2.42;;;17.70;96.90;;;;;;5054442;28;20038;-72
2022/05/11 00:27:52;;;;;;;5.47;2.08;;;17.70;97.00;;;;;;5016826;28;20046;-73
2022/05/11 00:30:20;;;;;;;3.75;2.10;;;17.60;96.90;;;;;;5024459;28;20064;-72
2022/05/11 00:32:46;;;;;;;6.72;2.60;;;17.50;97.00;;;;;;5018531;28;20037;-71
2022/05/11 00:35:12;;;;;;;4.85;2.70;;;17.50;97.20;;;;;;5015755;28;20568;-72
2022/05/11 00:37:38;;;;;;;8.77;3.17;;;17.40;97.60;;;;;;5051626;28;20125;-71
2022/05/11 00:40:05;;;;;;;8.60;3.15;;;17.40;99.90;;;;;;5019787;28;20093;-72
2022/05/11 00:42:31;;;;;;;10.15;3.92;;;17.20;99.90;;;;;;5019137;28;20041;-72
2022/05/11 00:44:58;;;;;;;10.05;3.63;;;17.30;99.90;;;;;;5015983;28;20066;-72
2022/05/11 00:47:33;;;;;;;7.03;4.07;;;17.30;99.90;;;;;;5020533;28;20359;-71
2022/05/11 00:50:22;;;;;;;6.95;3.60;;;17.20;99.90;;;;;;5046717;28;20490;-73
2022/05/11 00:53:00;;;;;;;6.25;3.10;;;17.10;99.90;;;;;;5024526;28;20097;-71
2022/05/11 00:55:33;;;;;;;8.80;3.67;;;17.10;99.90;;;;;;5049240;28;20508;-72
2022/05/11 00:58:23;;;;;;;6.30;3.95;;;17.00;99.90;;;;;;5019607;28;20034;-72
2022/05/11 01:00:49;;;;;;;5.95;3.50;;;17.00;99.90;;;;;;5030500;28;20041;-72
2022/05/11 01:03:21;;;;;;;6.50;3.72;;;17.00;99.90;;;;;;5000308;28;20481;-72
2022/05/11 01:05:47;;;;;;;10.00;4.07;;;17.10;99.90;;;;;;5001698;28;20038;-71
2022/05/11 01:08:16;;;;;;;8.90;3.85;;;17.00;99.90;;;;;;4996489;28;20044;-71
2022/05/11 01:10:43;;;;;;;6.30;3.70;;;16.90;99.90;;;;;;5000227;28;20058;-72
2022/05/11 01:13:13;;;;;;;6.80;3.83;;;16.90;99.90;;;;;;5000769;28;20046;-71
2022/05/11 01:15:39;;;;;;;7.53;3.67;;;16.90;99.90;;;;;;4999842;28;20038;-72
2022/05/11 01:18:08;;;;;;;7.43;3.50;;;17.00;99.90;;;;;;5000086;28;20038;-72
2022/05/11 01:20:35;;;;;;;8.75;3.30;;;17.00;99.90;;;;;;5033229;28;20046;-71
2022/05/11 01:23:33;;;;;;;9.90;3.75;;;16.90;99.90;;;;;;4999616;28;20062;-72
2022/05/11 01:26:03;;;;;;;9.10;3.63;;;16.90;99.90;;;;;;4990660;28;20053;-71
2022/05/11 01:28:30;;;;;;;10.40;4.45;;;16.80;99.90;;;;;;5029637;28;20038;-71
2022/05/11 01:31:07;;;;;;;9.10;4.28;;;16.90;99.90;;;;;;4999832;28;20382;-72
2022/05/11 01:33:37;;;;;;;10.02;4.47;;;16.80;99.90;;;;;;5024416;28;20034;-72
2022/05/11 01:36:16;;;;;;;13.00;5.20;;;16.70;99.90;;;;;;5045385;28;20034;-73
2022/05/11 01:38:48;;;;;;;10.10;5.03;;;16.70;99.90;;;;;;5024164;28;20034;-71
2022/05/11 01:41:22;;;;;;;14.27;5.53;;;16.80;99.90;;;;;;5015322;28;20266;-73
2022/05/11 01:43:51;;;;;;;9.05;4.82;;;16.80;99.90;;;;;;5049654;28;20100;-72
2022/05/11 01:46:18;;;;;;;11.73;5.00;;;16.80;99.90;;;;;;5017024;28;20038;-72
2022/05/11 01:48:44;;;;;;;10.02;5.18;;;16.70;99.90;;;;;;5015877;28;20045;-72
2022/05/11 01:51:15;;;;;;;10.15;4.97;;;16.60;99.90;;;;;;5016170;28;20041;-74
2022/05/11 01:53:43;;;;;;;11.15;5.10;;;16.50;99.90;;;;;;5049695;28;20038;-72
2022/05/11 01:56:10;;;;;;;10.27;4.25;;;16.60;99.90;;;;;;5023159;28;20037;-72
2022/05/11 01:58:36;;;;;;;9.15;4.40;;;16.70;99.90;;;;;;5018123;28;20116;-72
2022/05/11 02:01:04;;;;;;;9.48;4.85;;;16.80;99.90;;;;;;5022909;28;20045;-72
2022/05/11 02:03:31;;;;;;;11.82;4.80;;;16.80;99.90;;;;;;5020210;28;20448;-71
2022/05/11 02:08:43;;;;;;;7.57;4.18;;;16.80;99.90;;;;;;5020160;28;20048;-72
2022/05/11 02:11:11;;;;;;;11.55;4.47;;;16.80;99.90;;;;;;5048653;28;20373;-72
2022/05/11 02:13:39;;;;;;;10.38;4.82;;;16.70;99.90;;;;;;5018322;28;20037;-72
2022/05/11 02:16:06;;;;;;;9.07;4.10;;;16.70;99.90;;;;;;5051443;28;20038;-72
2022/05/11 02:18:33;;;;;;;11.10;4.60;;;16.70;99.90;;;;;;5019832;28;20476;-72
2022/05/11 02:20:59;;;;;;;9.88;4.63;;;16.60;99.90;;;;;;5065334;28;20688;-72
2022/05/11 02:23:26;;;;;;;11.90;4.85;;;16.60;99.90;;;;;;5027396;28;20120;-72
2022/05/11 02:25:53;;;;;;;13.30;4.68;;;16.60;99.90;;;;;;5017624;28;20105;-71
2022/05/11 02:28:21;;;;;;;9.73;4.70;;;16.70;99.90;;;;;;5049598;28;20061;-72
2022/05/11 02:30:49;;;;;;;10.63;4.80;;;16.70;99.90;;;;;;5017107;28;20033;-72
2022/05/11 02:33:16;;;;;;;10.75;5.03;;;16.80;99.90;;;;;;5033046;28;20089;-72
2022/05/11 02:35:44;;;;;;;8.63;4.40;;;16.70;99.90;;;;;;5039313;28;20030;-71
2022/05/11 02:38:22;;;;;;;13.30;4.55;;;16.60;99.90;;;;;;5049816;28;20041;-72
2022/05/11 02:40:48;;;;;;;12.25;4.28;;;16.70;99.90;;;;;;5046094;28;20057;-71
2022/05/11 02:43:15;;;;;;;11.98;4.68;;;16.60;99.90;;;;;;5013734;28;20122;-73
2022/05/11 02:45:42;;;;;;;8.88;4.15;;;16.50;99.90;;;;;;5017194;28;20083;-72
2022/05/11 02:48:14;;;;;;;8.35;4.43;;;16.50;99.90;;;;;;5015304;28;20393;-71
2022/05/11 02:50:47;;;;;;;11.83;4.80;;;16.50;99.90;;;;;;5017290;28;20421;-72
2022/05/11 02:53:14;;;;;;;14.15;4.53;;;16.50;99.90;;;;;;5019331;28;20279;-72
2022/05/11 02:55:44;;;;;;;10.35;3.83;;;16.40;99.90;;;;;;5016677;28;20034;-72
2022/05/11 02:58:15;;;;;;;7.80;4.03;;;16.40;99.90;;;;;;5050681;28;20108;-72
2022/05/11 03:00:44;;;;;;;9.70;4.35;;;16.40;99.90;;;;;;5015381;28;20094;-72
2022/05/11 03:03:13;;;;;;;9.65;4.05;;;16.40;99.90;;;;;;5018228;28;20050;-71
2022/05/11 03:05:40;;;;;;;9.23;4.15;;;16.30;99.90;;;;;;5016585;28;20488;-72
2022/05/11 03:08:08;;;;;;;8.93;4.15;;;16.30;99.90;;;;;;5045312;28;20385;-72
2022/05/11 03:10:34;;;;;;;8.23;4.40;;;16.30;99.90;;;;;;5021199;28;20141;-73
2022/05/11 03:13:02;;;;;;;16.02;4.78;;;16.30;99.90;;;;;;5015453;28;20129;-72
2022/05/11 03:15:29;;;;;;;8.05;4.40;;;16.30;99.90;;;;;;5019974;28;20034;-73
2022/05/11 03:17:56;;;;;;;12.25;4.82;;;16.30;99.90;;;;;;5021151;28;20052;-72
2022/05/11 03:20:23;;;;;;;13.15;4.68;;;16.20;99.90;;;;;;5050277;28;20033;-72
2022/05/11 03:22:51;;;;;;;10.45;4.88;;;16.10;99.90;;;;;;5016136;28;20044;-72
2022/05/11 03:25:18;;;;;;;8.95;4.53;;;16.10;99.90;;;;;;5017045;28;20034;-73
2022/05/11 03:27:46;;;;;;;9.30;4.70;;;16.10;99.90;;;;;;5058021;28;20461;-71
2022/05/11 03:30:13;;;;;;;11.60;5.07;;;16.10;99.90;;;;;;5021265;28;20069;-72
2022/05/11 03:35:24;;;;;;;12.02;4.65;;;16.00;99.90;;;;;;5014955;28;20040;-73
2022/05/11 03:37:50;;;;;;;9.25;4.65;;;16.00;99.90;;;;;;5021938;28;20036;-71
2022/05/11 03:40:17;;;;;;;10.60;5.53;;;16.00;99.90;;;;;;5015066;28;20048;-72
2022/05/11 03:42:45;;;;;;;12.43;4.82;;;16.00;99.90;;;;;;5048830;28;20041;-73
2022/05/11 03:45:13;;;;;;;13.40;4.70;;;15.90;99.90;;;;;;5019161;28;20433;-72
2022/05/11 03:47:39;;;;;;;11.30;4.88;;;16.00;99.90;;;;;;5013723;28;20120;-72
2022/05/11 03:50:07;;;;;;;13.68;4.90;;;16.10;99.90;;;;;;5013360;28;20113;-71
2022/05/11 03:52:35;;;;;;;13.10;4.90;;;16.10;99.90;;;;;;5045442;28;20128;-72
2022/05/11 03:55:01;;;;;;;8.68;4.32;;;16.10;99.90;;;;;;5023718;28;20907;-72
2022/05/11 03:57:28;;;;;;;14.93;5.10;;;16.10;99.90;;;;;;5021730;28;20061;-71
2022/05/11 03:59:54;;;;;;;11.95;5.32;;;16.10;99.90;;;;;;5019378;28;20049;-72
2022/05/11 04:02:20;;;;;;;11.88;4.97;;;16.10;99.90;;;;;;5018498;28;20045;-71
2022/05/11 04:04:46;;;;;;;12.50;5.22;;;16.10;99.90;;;;;;5046013;28;20025;-72
2022/05/11 04:07:12;;;;;;;10.45;4.38;;;16.10;99.90;;;;;;5015052;28;20432;-73
2022/05/11 04:09:39;;;;;;;16.08;5.40;;;16.00;99.90;;;;;;5017726;28;20037;-73
2022/05/11 04:12:06;;;;;;;13.93;5.05;;;16.00;99.90;;;;;;5016599;28;20046;-72
2022/05/11 04:14:32;;;;;;;13.60;5.57;;;15.90;99.90;;;;;;5019757;28;20045;-72
2022/05/11 04:16:59;;;;;;;11.75;5.00;;;15.90;99.90;;;;;;5003754;28;20073;-73
2022/05/11 04:19:27;;;;;;;17.00;5.57;;;15.80;99.90;;;;;;5023995;28;20042;-72
2022/05/11 04:21:55;;;;;;;10.50;5.55;;;15.90;99.90;;;;;;5013206;28;20115;-71
2022/05/11 04:24:21;;;;;;;11.27;5.68;;;15.90;99.90;;;;;;5024032;28;20112;-72
2022/05/11 04:26:49;;;;;;;13.68;4.63;;;16.00;99.90;;;;;;5020638;28;20049;-72
2022/05/11 04:29:15;;;;;;;11.57;5.03;;;16.10;99.90;;;;;;5018058;28;20107;-72
2022/05/11 04:31:41;;;;;;;16.00;5.32;;;16.10;99.90;;;;;;5035275;28;20045;-71
2022/05/11 04:34:11;;;;;;;13.35;4.57;;;16.00;99.90;;;;;;5019267;28;20040;-73
2022/05/11 04:36:39;;;;;;;12.27;5.15;;;16.00;99.90;;;;;;5022995;28;20033;-73
2022/05/11 04:39:06;;;;;;;10.85;5.00;;;16.00;99.90;;;;;;5019678;28;20041;-72
2022/05/11 04:41:32;;;;;;;13.02;5.10;;;15.90;99.90;;;;;;5024433;28;20066;-73
2022/05/11 04:43:58;;;;;;;14.43;5.40;;;15.90;99.90;;;;;;5015760;28;20407;-72
2022/05/11 04:46:25;;;;;;;11.23;5.07;;;16.10;99.90;;;;;;5022050;28;20091;-73
2022/05/11 04:49:16;;;;;;;12.38;4.57;;;16.10;99.90;;;;;;5017549;28;20046;-72
2022/05/11 04:51:36;;;;;;;13.27;4.38;;;16.20;99.90;;;;;;5017098;28;21098;-72
2022/05/11 04:54:04;;;;;;;11.95;5.53;;;16.10;99.90;;;;;;5019480;28;20049;-74
2022/05/11 04:56:32;;;;;;;14.10;5.05;;;16.00;99.90;;;;;;5021794;28;20054;-71
2022/05/11 04:58:58;;;;;;;15.70;5.40;;;16.00;99.90;;;;;;5030317;28;20044;-72
2022/05/11 05:01:25;;;;;;;11.27;5.18;;;16.10;99.90;;;;;;5024566;28;20397;-72
2022/05/11 05:03:52;;;;;;;13.60;4.70;;;16.20;99.90;;;;;;5051798;28;20120;-73
2022/05/11 05:06:18;;;;;;;15.73;5.57;;;16.10;99.90;;;;;;5017530;28;20044;-73
2022/05/11 05:08:45;;;;;;;13.10;5.03;;;16.20;99.90;;;;;;5019655;28;20038;-72
2022/05/11 05:11:12;;;;;;;16.20;6.03;;;16.20;99.90;;;;;;5016693;28;20048;-72
2022/05/11 05:13:38;;;;;;;14.43;5.40;;;16.10;99.90;;;;;;5021377;28;20115;-71
2022/05/11 05:16:05;;;;;;;14.18;5.68;;;16.20;99.90;;;;;;5018857;28;20065;-72
2022/05/11 05:18:32;;;;;;;15.02;5.50;;;16.20;99.90;;;;;;5019438;28;20543;-72
2022/05/11 05:20:58;;;;;;;9.50;5.03;;;16.30;99.90;;;;;;5025239;28;20037;-72
2022/05/11 05:23:24;;;;;;;13.45;5.15;;;16.40;99.90;;;;;;5049055;28;20089;-75
2022/05/11 05:25:51;;;;;;;12.85;6.28;;;16.50;99.90;;;;;;5020193;28;20847;-72
2022/05/11 05:31:09;;;;;;;14.93;4.53;;;16.70;99.90;;;;;;5020060;28;20045;-72
2022/05/11 05:33:39;;;;;;;12.60;4.20;;;16.90;99.90;;;;;;5016701;28;20076;-72
2022/05/11 05:36:05;;;;;;;12.70;3.97;;;17.00;99.90;;;;;;5017327;28;20041;-72
2022/05/11 05:38:33;;;;;;;18.35;4.10;;;17.00;99.90;;;;;;5024841;28;20121;-71
2022/05/11 05:40:59;;;;;;;10.63;3.67;;;17.20;99.90;;;;;;5047838;28;20038;-72
2022/05/11 05:43:25;;;;;;;14.82;4.40;;;17.30;99.90;;;;;;5018494;28;20161;-72
2022/05/11 05:45:53;;;;;;;10.60;4.30;;;17.50;99.90;;;;;;5017754;28;20050;-74
2022/05/11 05:48:21;;;;;;;19.38;5.10;;;17.50;99.90;;;;;;5013726;28;20042;-73
2022/05/11 05:50:47;;;;;;;15.52;4.75;;;17.60;99.90;;;;;;5023360;28;20052;-72
2022/05/11 05:53:19;;;;;;;12.77;4.53;;;17.70;99.90;;;;;;5018521;28;20049;-73
2022/05/11 05:55:48;;;;;;;13.98;4.38;;;17.80;99.90;;;;;;5018937;28;20044;-72
2022/05/11 05:58:14;;;;;;;16.63;4.80;;;17.80;99.90;;;;;;5022980;28;20037;-73
2022/05/11 06:00:41;;;;;;;12.48;4.75;;;17.90;99.90;;;;;;5021007;28;20026;-72
2022/05/11 06:03:07;;;;;;;11.10;4.10;;;18.00;99.90;;;;;;5049653;28;20052;-73
2022/05/11 06:05:33;;;;;;;13.50;4.50;;;18.10;99.90;;;;;;5049013;28;20576;-73
2022/05/11 06:07:59;;;;;;;13.02;4.60;;;18.20;99.90;;;;;;5015662;28;20048;-72
2022/05/11 06:10:25;;;;;;;18.67;4.40;;;18.30;99.90;;;;;;5017658;28;20055;-74
2022/05/11 06:12:52;;;;;;;12.23;4.25;;;18.30;99.90;;;;;;5019929;28;20103;-73
2022/05/11 06:15:19;;;;;;;15.10;3.67;;;18.40;99.90;;;;;;5015316;28;20038;-73
2022/05/11 06:17:45;;;;;;;14.60;5.05;;;18.50;99.90;;;;;;5046786;28;20033;-73
2022/05/11 06:20:12;;;;;;;15.82;4.75;;;18.60;99.90;;;;;;5052637;28;20784;-73
2022/05/11 06:22:38;;;;;;;19.85;4.47;;;18.80;99.90;;;;;;5020441;28;20370;-74
2022/05/11 06:25:05;;;;;;;14.50;4.05;;;19.00;99.90;;;;;;5020427;28;20100;-73
2022/05/11 06:27:32;;;;;;;14.93;4.30;;;19.10;99.90;;;;;;5048588;28;20492;-73
2022/05/11 06:30:00;;;;;;;17.83;4.10;;;19.10;99.90;;;;;;5051694;28;20034;-73
2022/05/11 06:32:26;;;;;;;15.30;4.50;;;19.20;99.90;;;;;;5017450;28;20057;-74
2022/05/11 06:34:54;;;;;;;12.57;5.28;;;19.20;99.90;;;;;;5018562;28;20045;-72
2022/05/11 06:37:21;;;;;;;10.13;4.30;;;19.20;99.90;;;;;;5021242;28;20452;-73
2022/05/11 06:39:48;;;;;;;12.05;4.93;;;19.20;99.90;;;;;;5053111;28;20030;-73
2022/05/11 06:42:14;;;;;;;12.65;4.65;;;19.20;99.90;;;;;;5021971;28;20520;-73
2022/05/11 06:44:41;;;;;;;14.18;5.30;;;19.10;99.90;;;;;;5019676;28;20097;-72
2022/05/11 06:47:07;;;;;;;13.38;4.80;;;19.10;99.90;;;;;;5015371;28;20041;-73
2022/05/11 06:49:34;;;;;;;11.48;5.88;;;19.20;99.90;;;;;;5016973;28;20118;-73
2022/05/11 06:52:00;;;;;;;20.83;6.30;;;19.30;99.90;;;;;;5049854;28;20041;-74
2022/05/11 06:59:58;;;;;;;19.33;6.60;;;19.30;99.90;;;;;;5019403;28;20413;-74
2022/05/11 07:02:26;;;;;;;20.75;7.88;;;19.10;99.90;;;;;;5019224;28;20108;-73
2022/05/11 07:04:52;;;;;;;21.38;7.03;;;19.10;99.90;;;;;;5016878;28;20060;-73
2022/05/11 07:07:19;;;;;;;19.48;7.57;;;19.00;99.90;;;;;;5012993;28;20066;-73
2022/05/11 07:09:45;;;;;;;19.60;7.38;;;19.10;99.90;;;;;;5016575;28;20042;-73
2022/05/11 07:12:21;;;;;;;22.48;7.20;;;19.10;99.90;;;;;;5041431;28;20043;-72
2022/05/11 07:14:48;;;;;;;25.05;6.78;;;19.20;99.90;;;;;;5046257;28;20096;-74
2022/05/11 07:17:33;;;;;;;22.58;6.90;;;19.40;99.90;;;;;;5044709;28;20470;-72
2022/05/11 07:20:06;;;;;;;23.35;7.47;;;19.50;99.90;;;;;;5017242;28;20791;-73
2022/05/11 07:22:32;;;;;;;17.30;7.70;;;19.50;99.90;;;;;;5016081;28;20707;-73
2022/05/11 07:24:58;;;;;;;20.13;7.13;;;19.50;99.90;;;;;;5021056;28;20042;-72
2022/05/11 07:27:26;;;;;;;20.23;6.95;;;19.60;99.90;;;;;;5020264;28;20377;-72
2022/05/11 07:29:54;;;;;;;17.98;6.65;;;19.60;99.90;;;;;;5018531;28;20049;-72
2022/05/11 07:32:22;;;;;;;14.40;6.43;;;19.50;99.90;;;;;;5017165;28;20046;-72
2022/05/11 07:34:49;;;;;;;17.20;6.22;;;19.60;99.90;;;;;;5019101;28;20044;-73
2022/05/11 07:37:17;;;;;;;20.13;7.50;;;19.80;99.90;;;;;;5023772;28;20033;-73
2022/05/11 07:39:42;;;;;;;19.92;7.10;;;19.60;99.90;;;;;;5052517;28;20041;-72
2022/05/11 07:42:09;;;;;;;21.42;7.07;;;19.60;99.90;;;;;;5019100;28;20557;-74
2022/05/11 07:44:35;;;;;;;19.70;6.85;;;19.60;99.90;;;;;;5051027;28;20493;-73
2022/05/11 07:47:01;;;;;;;17.05;6.88;;;19.70;99.90;;;;;;5000941;28;20092;-73
2022/05/11 07:49:27;;;;;;;16.50;7.32;;;19.70;99.90;;;;;;5045923;28;20124;-72
2022/05/11 07:51:54;;;;;;;19.27;6.95;;;19.70;99.90;;;;;;5012441;28;20045;-71
2022/05/11 07:54:21;;;;;;;21.83;7.10;;;19.80;99.90;;;;;;5021663;28;20046;-72
2022/05/11 08:02:18;;;;;;;17.20;7.05;;;20.00;99.90;;;;;;5021071;28;20096;-72
2022/05/11 08:04:44;;;;;;;22.08;7.57;;;19.90;99.90;;;;;;5020636;28;20038;-72
2022/05/11 08:07:13;;;;;;;14.13;8.05;;;20.00;99.90;;;;;;5021233;28;20040;-73
2022/05/11 08:09:39;;;;;;;17.40;8.13;;;20.10;99.90;;;;;;5023881;28;20040;-72
2022/05/11 08:12:06;;;;;;;17.27;8.93;;;19.90;99.90;;;;;;5017806;28;20046;-72
2022/05/11 08:14:32;;;;;;;14.77;8.82;;;20.00;99.90;;;;;;5040746;28;20520;-72
2022/05/11 08:16:58;;;;;;;22.88;10.60;;;20.10;99.90;;;;;;5051529;28;20046;-72
2022/05/11 08:19:26;;;;;;;20.77;8.90;;;20.30;99.90;;;;;;5021770;28;20033;-72
2022/05/11 08:21:53;;;;;;;16.85;8.05;;;20.40;99.90;;;;;;5019082;28;20073;-71
2022/05/11 08:24:19;;;;;;;20.05;7.90;;;20.60;99.90;;;;;;5017029;28;20707;-73
2022/05/11 08:26:46;;;;;;;13.73;8.27;;;20.30;99.90;;;;;;5048542;28;20824;-72
2022/05/11 08:34:46;;;;;;;14.55;6.65;;;22.00;99.90;;;;;;5011306;28;20539;-73
2022/05/11 08:37:12;;;;;;;12.40;5.18;;;23.00;99.90;;;;;;5003770;28;20489;-74
2022/05/11 08:39:39;;;;;;;7.22;4.25;;;23.80;99.90;;;;;;5051815;28;20039;-73
2022/05/11 08:42:06;;;;;;;9.57;4.53;;;23.10;99.90;;;;;;5025893;28;20045;-73
2022/05/11 08:44:34;;;;;;;12.05;5.40;;;23.10;99.70;;;;;;5039957;28;20133;-73
2022/05/11 08:47:20;;;;;;;13.15;6.60;;;23.40;99.90;;;;;;5050854;28;20037;-73
2022/05/11 08:50:04;;;;;;;14.48;4.88;;;24.00;99.70;;;;;;5019862;28;20084;-72
2022/05/11 08:52:40;;;;;;;12.98;4.60;;;23.80;99.80;;;;;;5024829;28;20033;-72
2022/05/11 08:55:28;;;;;;;8.73;3.85;;;24.50;98.50;;;;;;5052439;28;20040;-73
2022/05/11 08:57:55;;;;;;;9.23;4.15;;;24.60;98.10;;;;;;5022308;28;20178;-72
2022/05/11 09:00:23;;;;;;;9.80;3.75;;;24.30;98.50;;;;;;5019418;28;20374;-74
2022/05/11 09:02:56;;;;;;;10.32;3.95;;;24.60;97.80;;;;;;5023218;28;20480;-72
2022/05/11 09:05:34;;;;;;;7.82;3.65;;;24.60;97.70;;;;;;5014905;28;20210;-72
2022/05/11 09:08:04;;;;;;;10.98;3.75;;;23.50;98.20;;;;;;5026123;28;20041;-72
2022/05/11 09:10:35;;;;;;;8.07;3.72;;;23.20;98.70;;;;;;5010253;28;20516;-73
2022/05/11 09:13:04;;;;;;;10.70;3.30;;;22.40;99.90;;;;;;5026380;28;20029;-72
2022/05/11 09:15:56;;;;;;;14.43;4.18;;;23.10;99.90;;;;;;5022181;28;20040;-73
2022/05/11 09:18:40;;;;;;;12.68;3.42;;;24.40;98.50;;;;;;5051961;28;20964;-73
2022/05/11 09:21:33;;;;;;;12.73;4.25;;;25.40;96.90;;;;;;5054481;28;20113;-73
2022/05/11 09:24:08;;;;;;;10.10;3.42;;;25.70;96.50;;;;;;5020490;28;20037;-74
2022/05/11 09:26:38;;;;;;;7.03;3.53;;;25.30;96.30;;;;;;5048071;28;20064;-73
2022/05/11 09:29:16;;;;;;;7.05;3.10;;;24.90;97.10;;;;;;5014043;28;20033;-73
2022/05/11 09:31:44;;;;;;;12.07;3.17;;;24.40;96.50;;;;;;5023224;28;20033;-74
2022/05/11 09:34:14;;;;;;;10.57;3.40;;;24.90;96.10;;;;;;5016022;28;20042;-72
2022/05/11 09:36:52;;;;;;;13.55;3.30;;;25.50;95.80;;;;;;5048566;28;20881;-72
2022/05/11 09:39:18;;;;;;;9.45;2.97;;;25.80;95.50;;;;;;5039223;28;20068;-73
2022/05/11 09:41:50;;;;;;;9.40;3.40;;;24.90;96.30;;;;;;5017773;28;20045;-72
2022/05/11 09:44:25;;;;;;;9.77;3.30;;;25.60;96.00;;;;;;5019365;28;20041;-73
2022/05/11 09:46:53;;;;;;;10.38;3.30;;;26.10;95.20;;;;;;5046402;28;20038;-72
2022/05/11 09:49:19;;;;;;;13.50;3.00;;;26.10;95.20;;;;;;5015915;28;20076;-72
2022/05/11 09:51:50;;;;;;;9.35;3.25;;;26.00;94.50;;;;;;4997731;28;20077;-73
2022/05/11 09:54:38;;;;;;;12.82;3.10;;;26.40;94.10;;;;;;5017147;28;20041;-72
2022/05/11 09:57:29;;;;;;;7.57;3.13;;;25.50;93.80;;;;;;5016143;28;20087;-72
2022/05/11 10:00:22;;;;;;;12.68;3.20;;;25.50;94.90;;;;;;5018848;28;20100;-73
2022/05/11 10:02:56;;;;;;;9.93;2.67;;;25.90;93.90;;;;;;5019751;28;20034;-72
2022/05/11 10:05:26;;;;;;;6.68;2.65;;;25.60;94.10;;;;;;5012631;28;21967;-73
2022/05/11 10:08:03;;;;;;;10.25;2.90;;;26.30;94.00;;;;;;5020184;28;20034;-73
2022/05/11 10:10:38;;;;;;;10.27;2.63;;;26.30;94.10;;;;;;5014172;28;20547;-72
2022/05/11 10:13:12;;;;;;;8.88;2.53;;;25.30;93.40;;;;;;5050350;28;20576;-71
2022/05/11 10:24:17;;;;;;;10.70;2.50;;;25.90;92.80;;;;;;5017097;28;20424;-73
2022/05/11 10:26:49;;;;;;;14.25;2.67;;;26.30;92.80;;;;;;5050049;28;20030;-72
2022/05/11 10:29:17;;;;;;;;;;;26.90;92.50;;;;;;5048923;28;20030;-72
2022/05/11 10:32:20;;;;;;;7.20;2.92;;;27.20;92.20;;;;;;5023298;28;19924;-73
2022/05/11 10:34:54;;;;;;;10.00;2.72;;;25.60;92.60;;;;;;5007248;28;20045;-72
2022/05/11 10:37:32;;;;;;;12.07;2.85;;;25.90;92.50;;;;;;5011114;28;20041;-74
2022/05/11 10:40:41;;;;;;;12.20;2.70;;;25.60;92.70;;;;;;5047696;28;20041;-73
2022/05/11 10:43:09;;;;;;;10.48;3.13;;;26.30;92.20;;;;;;5020691;28;20040;-73
2022/05/11 10:45:49;;;;;;;12.88;2.47;;;25.50;91.60;;;;;;5049774;28;20029;-73
2022/05/11 10:48:45;;;;;;;12.35;2.40;;;25.60;91.30;;;;;;5017180;28;20092;-73
2022/05/11 10:51:17;;;;;;;12.52;2.60;;;25.30;91.30;;;;;;5004473;28;20389;-74
2022/05/11 10:53:46;;;;;;;8.70;2.88;;;25.30;91.10;;;;;;5049265;28;20037;-73
2022/05/11 10:56:31;;;;;;;12.70;2.47;;;25.10;90.90;;;;;;5016360;28;20593;-73
2022/05/11 10:59:17;;;;;;;13.90;2.35;;;24.00;90.80;;;;;;5012335;28;20540;-71
2022/05/11 11:01:45;;;;;;;10.00;2.95;;;24.60;91.70;;;;;;5016490;28;20076;-73
2022/05/11 11:04:17;;;;;;;10.63;2.72;;;24.50;92.50;;;;;;5020460;28;20037;-74
2022/05/11 11:07:23;;;;;;;10.40;2.60;;;24.90;92.10;;;;;;5014421;28;20048;-72
2022/05/11 11:10:24;;;;;;;11.32;3.05;;;25.00;91.70;;;;;;5015864;28;20037;-72
2022/05/11 11:12:57;;;;;;;8.48;2.30;;;24.30;92.90;;;;;;5023099;28;20038;-72
2022/05/11 11:15:27;;;;;;;10.80;2.90;;;23.80;92.40;;;;;;5053828;28;20445;-74
2022/05/11 11:17:55;;;;;;;10.57;2.50;;;24.80;91.90;;;;;;5051484;28;20037;-72
2022/05/11 11:20:24;;;;;;;14.02;3.33;;;24.90;91.60;;;;;;5032161;28;20454;-73
2022/05/11 11:23:02;;;;;;;9.32;2.70;;;25.60;91.10;;;;;;5020298;28;20049;-73
2022/05/11 11:25:51;;;;;;;12.05;2.70;;;25.00;91.50;;;;;;5032127;28;20065;-73
2022/05/11 11:28:18;;;;;;;8.82;2.55;;;24.20;91.70;;;;;;5010556;28;20030;-73
2022/05/11 11:30:59;;;;;;;10.40;3.03;;;24.70;91.50;;;;;;5011844;28;20489;-73
2022/05/11 11:33:30;;;;;;;11.93;3.58;;;24.70;91.30;;;;;;5016266;28;20045;-73
2022/05/11 11:36:26;;;;;;;13.98;3.30;;;24.60;91.10;;;;;;5050943;28;20104;-74
2022/05/11 11:38:53;;;;;;;15.50;2.78;;;24.50;91.40;;;;;;5016496;28;20041;-73
2022/05/11 11:41:28;;;;;;;15.02;2.63;;;24.70;91.90;;;;;;5016738;28;20575;-74
2022/05/11 11:44:00;;;;;;;11.32;2.33;;;25.20;91.80;;;;;;5012669;28;20076;-73
2022/05/11 11:46:27;;;;;;;11.40;3.03;;;23.90;92.70;;;;;;5016154;28;20030;-72
2022/05/11 11:49:02;;;;;;;12.38;3.25;;;24.60;92.30;;;;;;5014072;28;20119;-73
2022/05/11 11:51:58;;;;;;;17.30;2.78;;;26.00;91.90;;;;;;5015307;28;20040;-72
2022/05/11 11:54:47;;;;;;;12.75;2.72;;;25.90;91.90;;;;;;5011884;28;20060;-72
2022/05/11 11:57:13;;;;;;;10.35;2.42;;;24.90;92.50;;;;;;5014874;28;20497;-72
2022/05/11 11:59:47;;;;;;;11.27;2.90;;;24.80;93.40;;;;;;5047516;28;20227;-73
2022/05/11 12:02:22;;;;;;;8.30;2.35;;;24.90;93.50;;;;;;5026169;28;20046;-72
2022/05/11 12:05:08;;;;;;;12.02;2.97;;;24.00;94.50;;;;;;5005824;28;20634;-71
2022/05/11 12:16:21;;;;;;;10.43;2.38;;;24.00;94.30;;;;;;5001470;28;20049;-73
2022/05/11 12:18:48;;;;;;;10.15;3.42;;;24.90;94.70;;;;;;4990953;28;20065;-73
2022/05/11 12:21:23;;;;;;;13.32;3.17;;;25.30;95.00;;;;;;5003491;28;20128;-72
2022/05/11 12:23:50;;;;;;;10.27;2.70;;;24.90;94.50;;;;;;4981941;28;20536;-72
2022/05/11 12:26:38;;;;;;;8.95;2.70;;;26.20;94.20;;;;;;5001909;28;20052;-72
2022/05/11 12:32:07;;;;;;;5.95;2.67;;;25.60;95.20;;;;;;5002895;28;20044;-72
2022/05/11 12:34:44;;;;;;;8.07;2.67;;;25.90;94.30;;;;;;5001247;28;20775;-73
2022/05/11 12:37:27;;;;;;;9.32;2.60;;;26.40;93.90;;;;;;5001481;28;20658;-72
2022/05/11 12:39:59;;;;;;;8.43;2.60;;;25.40;93.50;;;;;;5034328;28;20046;-72
2022/05/11 12:42:48;;;;;;;10.95;3.42;;;24.60;93.80;;;;;;4993414;28;20061;-71
2022/05/11 12:45:21;;;;;;;11.80;2.92;;;24.50;94.70;;;;;;5034912;28;20132;-72
2022/05/11 12:47:53;;;;;;;11.15;3.28;;;24.70;93.90;;;;;;5008878;28;20076;-72
2022/05/11 12:50:48;;;;;;;7.18;2.38;;;25.20;93.90;;;;;;5012084;28;20041;-72
2022/05/11 12:53:15;;;;;;;8.32;2.58;;;24.80;92.90;;;;;;5008573;28;20331;-72
2022/05/11 12:55:42;;;;;;;8.13;2.13;;;24.10;93.80;;;;;;5004156;28;20034;-71
2022/05/11 12:58:25;;;;;;;13.80;3.10;;;24.30;93.30;;;;;;5040095;28;20037;-71
2022/05/11 13:01:01;;;;;;;11.80;3.47;;;24.80;93.30;;;;;;5004738;28;20041;-71
2022/05/11 13:03:30;;;;;;;8.00;2.65;;;24.70;93.70;;;;;;5007166;28;20843;-73
2022/05/11 13:06:13;;;;;;;11.80;2.80;;;24.50;93.60;;;;;;5008169;28;20095;-72
2022/05/11 13:08:43;;;;;;;12.80;3.35;;;24.30;94.10;;;;;;5000975;28;20088;-72
2022/05/11 13:11:17;;;;;;;10.68;3.00;;;24.50;93.50;;;;;;5035325;28;20095;-72
2022/05/11 13:13:45;;;;;;;12.90;2.97;;;25.30;93.30;;;;;;5002609;28;20176;-72
2022/05/11 13:16:21;;;;;;;6.97;2.30;;;25.40;93.40;;;;;;5002756;28;20040;-72
2022/05/11 13:18:47;;;;;;;13.32;3.17;;;24.40;94.90;;;;;;5005983;28;20036;-73
2022/05/11 13:21:24;;;;;;;7.65;3.13;;;24.00;94.90;;;;;;5041013;28;20060;-73
2022/05/11 13:23:51;;;;;;;18.08;2.95;;;25.10;93.70;;;;;;5021852;28;20076;-71
2022/05/11 13:26:29;;;;;;;9.65;2.65;;;24.90;93.40;;;;;;5010601;28;20045;-72
2022/05/11 13:29:01;;;;;;;13.75;2.95;;;24.70;93.70;;;;;;5041316;28;20104;-73
2022/05/11 13:31:35;;;;;;;10.73;3.08;;;25.70;93.20;;;;;;5002458;28;20781;-72
2022/05/11 13:34:04;;;;;;;8.30;2.70;;;25.30;94.00;;;;;;5011251;28;20053;-72
2022/05/11 13:36:44;;;;;;;11.38;3.00;;;24.80;94.50;;;;;;5014934;28;20155;-72
2022/05/11 13:39:14;;;;;;;11.23;2.83;;;25.70;93.60;;;;;;5045388;28;20056;-73
2022/05/11 13:41:46;;;;;;;13.45;3.03;;;25.60;92.90;;;;;;5010487;28;20030;-72
2022/05/11 13:44:14;;;;;;;15.60;3.00;;;24.70;93.50;;;;;;5014013;28;20066;-72